createdAt,value
2018-03-18T00:01:37.912Z,35.33
2018-03-18T00:04:06.200Z,31.93
2018-03-18T00:06:34.522Z,34.70
2018-03-18T00:09:02.784Z,32.13
2018-03-18T00:11:31.056Z,32.17
2018-03-18T00:13:59.410Z,38.50
2018-03-18T00:16:27.725Z,37.17
2018-03-18T00:18:55.978Z,36.10
2018-03-18T00:21:24.257Z,32.13
2018-03-18T00:23:52.511Z,30.13
2018-03-18T00:26:20.925Z,33.80
2018-03-18T00:28:50.064Z,32.30
2018-03-18T00:31:19.102Z,32.60
2018-03-18T00:33:47.364Z,31.10
2018-03-18T00:36:15.646Z,32.20
2018-03-18T00:38:43.936Z,29.60
2018-03-18T00:41:12.263Z,29.60
2018-03-18T00:43:41.320Z,32.97
2018-03-18T00:46:09.653Z,31.30
2018-03-18T00:48:37.970Z,33.00
2018-03-18T00:51:06.209Z,33.20
2018-03-18T00:53:34.528Z,32.50
2018-03-18T00:56:02.774Z,33.10
2018-03-18T00:58:31.078Z,29.50
2018-03-18T01:00:59.371Z,36.93
2018-03-18T01:03:27.632Z,34.37
2018-03-18T01:05:56.013Z,34.07
2018-03-18T01:08:24.288Z,32.63
2018-03-18T01:10:52.769Z,32.80
2018-03-18T01:13:21.055Z,30.10
2018-03-18T01:15:49.346Z,32.73
2018-03-18T01:18:17.610Z,34.13
2018-03-18T01:20:45.876Z,33.63
2018-03-18T01:23:14.157Z,30.87
2018-03-18T01:25:42.441Z,31.03
2018-03-18T01:28:10.812Z,32.50
2018-03-18T01:30:40.582Z,32.40
2018-03-18T01:33:08.930Z,32.83
2018-03-18T01:35:37.964Z,31.97
2018-03-18T01:38:06.260Z,31.43
2018-03-18T01:40:34.574Z,30.77
2018-03-18T01:43:03.648Z,33.07
2018-03-18T01:45:31.921Z,31.63
2018-03-18T01:48:00.290Z,34.80
2018-03-18T01:50:28.543Z,28.77
2018-03-18T01:53:08.835Z,29.90
2018-03-18T01:55:37.100Z,29.10
2018-03-18T01:58:05.382Z,27.70
2018-03-18T02:00:33.656Z,26.03
2018-03-18T02:03:01.938Z,26.60
2018-03-18T02:05:30.208Z,27.07
2018-03-18T02:07:58.480Z,26.97
2018-03-18T02:10:26.749Z,28.83
2018-03-18T02:12:55.026Z,25.40
2018-03-18T02:15:23.310Z,25.30
2018-03-18T02:17:51.585Z,25.87
2018-03-18T02:20:19.869Z,24.90
2018-03-18T02:22:48.181Z,29.13
2018-03-18T02:25:17.281Z,29.70
2018-03-18T02:27:46.306Z,31.80
2018-03-18T02:30:14.672Z,28.83
2018-03-18T02:32:42.987Z,25.37
2018-03-18T02:35:11.243Z,26.70
2018-03-18T02:37:39.523Z,25.20
2018-03-18T02:40:07.786Z,27.60
2018-03-18T02:42:36.057Z,25.67
2018-03-18T02:45:04.404Z,23.90
2018-03-18T02:47:33.563Z,25.07
2018-03-18T02:50:01.832Z,26.03
2018-03-18T02:52:30.117Z,26.50
2018-03-18T02:54:58.367Z,24.03
2018-03-18T02:57:26.684Z,25.50
2018-03-18T02:59:54.947Z,25.27
2018-03-18T03:02:23.247Z,22.63
2018-03-18T03:04:51.505Z,23.37
2018-03-18T03:07:19.777Z,24.53
2018-03-18T03:09:48.052Z,23.63
2018-03-18T03:12:16.331Z,24.67
2018-03-18T03:14:44.642Z,20.67
2018-03-18T03:17:13.676Z,25.87
2018-03-18T03:19:41.944Z,22.97
2018-03-18T03:22:10.255Z,24.23
2018-03-18T03:24:38.517Z,22.80
2018-03-18T03:27:06.774Z,22.70
2018-03-18T03:29:35.048Z,21.27
2018-03-18T03:32:03.304Z,25.23
2018-03-18T03:34:32.351Z,23.77
2018-03-18T03:37:00.604Z,23.83
2018-03-18T03:39:28.867Z,24.83
2018-03-18T03:41:57.155Z,23.47
2018-03-18T03:44:25.426Z,25.97
2018-03-18T03:46:53.704Z,22.60
2018-03-18T03:49:21.947Z,22.73
2018-03-18T03:51:50.984Z,24.33
2018-03-18T03:54:19.291Z,22.40
2018-03-18T03:56:47.528Z,25.03
2018-03-18T03:59:15.791Z,21.73
2018-03-18T04:01:44.085Z,21.63
2018-03-18T04:04:12.341Z,25.17
2018-03-18T04:06:40.636Z,21.47
2018-03-18T04:09:08.898Z,21.00
2018-03-18T04:11:37.206Z,21.63
2018-03-18T04:14:05.496Z,22.63
2018-03-18T04:16:33.863Z,19.30
2018-03-18T04:19:02.159Z,21.03
2018-03-18T04:21:30.416Z,19.83
2018-03-18T04:23:58.683Z,21.13
2018-03-18T04:26:26.949Z,22.03
2018-03-18T04:28:55.215Z,22.63
2018-03-18T04:31:23.476Z,22.17
2018-03-18T04:33:51.797Z,21.80
2018-03-18T04:36:20.018Z,21.70
2018-03-18T04:38:49.069Z,23.13
2018-03-18T04:41:17.343Z,21.70
2018-03-18T04:43:45.602Z,21.93
2018-03-18T04:46:13.869Z,22.57
2018-03-18T04:48:42.140Z,22.37
2018-03-18T04:51:10.461Z,22.53
2018-03-18T04:53:38.729Z,24.00
2018-03-18T04:56:07.039Z,22.00
2018-03-18T04:58:35.297Z,19.17
2018-03-18T05:01:04.333Z,25.63
2018-03-18T05:03:34.170Z,21.80
2018-03-18T05:06:02.428Z,22.60
2018-03-18T05:08:30.741Z,23.87
2018-03-18T05:10:58.965Z,20.67
2018-03-18T05:13:27.239Z,20.47
2018-03-18T05:15:55.482Z,21.23
2018-03-18T05:18:23.752Z,21.30
2018-03-18T05:20:52.005Z,20.60
2018-03-18T05:23:20.258Z,21.47
2018-03-18T05:25:48.540Z,21.63
2018-03-18T05:28:16.812Z,21.90
2018-03-18T05:30:45.065Z,19.70
2018-03-18T05:33:13.330Z,20.37
2018-03-18T05:35:42.357Z,21.37
2018-03-18T05:38:10.621Z,20.87
2018-03-18T05:40:38.889Z,23.13
2018-03-18T05:43:07.135Z,19.87
2018-03-18T05:45:35.413Z,20.10
2018-03-18T05:48:03.676Z,19.70
2018-03-18T05:50:32.772Z,19.50
2018-03-18T05:53:01.100Z,20.90
2018-03-18T05:55:29.335Z,22.47
2018-03-18T05:57:58.409Z,22.00
2018-03-18T06:00:26.692Z,20.33
2018-03-18T06:02:54.977Z,20.33
2018-03-18T06:05:23.240Z,19.87
2018-03-18T06:07:51.495Z,19.43
2018-03-18T06:10:19.752Z,17.37
2018-03-18T06:12:48.020Z,20.80
2018-03-18T06:15:16.294Z,18.53
2018-03-18T06:17:44.572Z,26.40
2018-03-18T06:20:12.852Z,18.13
2018-03-18T06:22:41.101Z,19.83
2018-03-18T06:25:10.144Z,19.17
2018-03-18T06:27:38.426Z,19.70
2018-03-18T06:30:06.677Z,18.10
2018-03-18T06:32:34.951Z,17.07
2018-03-18T06:35:03.192Z,18.10
2018-03-18T06:37:32.259Z,17.97
2018-03-18T06:40:00.506Z,17.43
2018-03-18T06:42:28.810Z,17.23
2018-03-18T06:44:57.048Z,18.70
2018-03-18T06:47:25.312Z,18.53
2018-03-18T06:49:53.663Z,22.30
2018-03-18T06:52:21.922Z,19.87
2018-03-18T06:54:50.206Z,17.97
2018-03-18T06:57:18.484Z,16.30
2018-03-18T06:59:46.752Z,19.70
2018-03-18T07:02:15.025Z,18.80
2018-03-18T07:04:43.311Z,20.90
2018-03-18T07:07:11.585Z,18.83
2018-03-18T07:09:39.860Z,18.07
2018-03-18T07:12:08.148Z,17.70
2018-03-18T07:14:36.413Z,20.27
2018-03-18T07:17:04.687Z,20.17
2018-03-18T07:19:32.967Z,19.43
2018-03-18T07:22:01.247Z,17.77
2018-03-18T07:24:29.516Z,20.60
2018-03-18T07:26:57.885Z,18.77
2018-03-18T07:29:26.136Z,19.77
2018-03-18T07:31:54.415Z,18.97
2018-03-18T07:34:22.662Z,19.23
2018-03-18T07:36:50.929Z,19.67
2018-03-18T07:39:19.983Z,19.20
2018-03-18T07:41:48.239Z,18.37
2018-03-18T07:44:16.524Z,18.90
2018-03-18T07:46:44.812Z,19.97
2018-03-18T07:49:13.074Z,17.50
2018-03-18T07:51:41.346Z,19.63
2018-03-18T07:54:09.629Z,21.20
2018-03-18T07:56:37.932Z,21.20
2018-03-18T07:59:06.210Z,18.50
2018-03-18T08:01:35.298Z,20.50
2018-03-18T08:04:03.606Z,20.23
2018-03-18T08:06:32.608Z,22.27
2018-03-18T08:09:00.883Z,17.40
2018-03-18T08:11:29.154Z,21.03
2018-03-18T08:13:58.217Z,18.43
2018-03-18T08:16:26.469Z,20.27
2018-03-18T08:18:54.747Z,21.07
2018-03-18T08:21:23.067Z,21.57
2018-03-18T08:23:51.309Z,21.57
2018-03-18T08:26:19.699Z,18.67
2018-03-18T08:28:47.890Z,21.73
2018-03-18T08:31:16.207Z,20.17
2018-03-18T08:33:44.474Z,21.00
2018-03-18T08:36:12.750Z,20.60
2018-03-18T08:38:41.020Z,23.63
2018-03-18T08:41:10.043Z,20.13
2018-03-18T08:43:38.343Z,20.90
2018-03-18T08:46:06.746Z,21.07
2018-03-18T08:48:34.992Z,18.20
2018-03-18T08:51:03.272Z,19.37
2018-03-18T08:53:31.547Z,22.63
2018-03-18T08:55:59.843Z,18.60
2018-03-18T08:58:28.096Z,21.07
2018-03-18T09:00:57.192Z,18.87
2018-03-18T09:03:25.445Z,19.63
2018-03-18T09:05:53.719Z,19.40
2018-03-18T09:08:21.977Z,20.50
2018-03-18T09:10:50.253Z,21.00
2018-03-18T09:13:18.506Z,19.10
2018-03-18T09:15:46.787Z,20.23
2018-03-18T09:18:15.825Z,20.47
2018-03-18T09:20:44.096Z,20.17
2018-03-18T09:23:12.375Z,18.97
2018-03-18T09:25:40.631Z,20.93
2018-03-18T09:28:08.923Z,19.40
2018-03-18T09:30:37.164Z,20.23
2018-03-18T09:33:06.200Z,21.07
2018-03-18T09:35:34.509Z,19.27
2018-03-18T09:38:02.762Z,21.33
2018-03-18T09:40:31.158Z,22.20
2018-03-18T09:42:59.468Z,19.73
2018-03-18T09:45:28.802Z,19.45
2018-03-18T09:47:57.062Z,21.00
2018-03-18T09:50:25.356Z,19.17
2018-03-18T09:52:53.623Z,19.53
2018-03-18T09:55:21.909Z,17.77
2018-03-18T09:57:50.217Z,21.97
2018-03-18T10:00:18.586Z,21.27
2018-03-18T10:02:46.833Z,20.17
2018-03-18T10:05:15.109Z,19.33
2018-03-18T10:07:43.391Z,20.37
2018-03-18T10:10:11.653Z,20.70
2018-03-18T10:12:39.933Z,20.03
2018-03-18T10:15:08.209Z,21.33
2018-03-18T10:17:36.528Z,20.63
2018-03-18T10:20:04.802Z,21.37
2018-03-18T10:22:33.144Z,20.77
2018-03-18T10:25:01.452Z,22.30
2018-03-18T10:27:29.743Z,19.53
2018-03-18T10:29:58.008Z,19.57
2018-03-18T10:32:26.268Z,21.30
2018-03-18T10:34:54.567Z,21.30
2018-03-18T10:37:22.850Z,20.93
2018-03-18T10:39:51.108Z,17.77
2018-03-18T10:42:19.385Z,19.17
2018-03-18T10:44:47.659Z,22.43
2018-03-18T10:47:16.007Z,18.97
2018-03-18T10:49:44.261Z,21.43
2018-03-18T10:52:13.294Z,19.33
2018-03-18T10:54:41.558Z,22.50
2018-03-18T10:57:09.823Z,19.93
2018-03-18T10:59:38.104Z,20.10
2018-03-18T11:02:21.247Z,19.10
2018-03-18T11:04:49.517Z,22.23
2018-03-18T11:07:17.804Z,20.93
2018-03-18T11:09:46.066Z,19.63
2018-03-18T11:12:14.335Z,17.53
2018-03-18T11:14:42.640Z,20.80
2018-03-18T11:17:10.932Z,21.10
2018-03-18T11:19:39.177Z,20.43
2018-03-18T11:22:07.461Z,19.47
2018-03-18T11:24:35.737Z,20.87
2018-03-18T11:27:04.036Z,22.57
2018-03-18T11:29:32.325Z,20.13
2018-03-18T11:32:01.410Z,20.17
2018-03-18T11:34:29.676Z,22.23
2018-03-18T11:36:57.946Z,19.20
2018-03-18T11:39:26.211Z,19.67
2018-03-18T11:41:54.531Z,23.00
2018-03-18T11:44:22.801Z,18.83
2018-03-18T11:46:51.118Z,19.87
2018-03-18T11:49:19.384Z,21.67
2018-03-18T11:51:47.707Z,22.43
2018-03-18T11:54:15.969Z,20.37
2018-03-18T11:56:44.267Z,22.80
2018-03-18T11:59:12.592Z,22.80
2018-03-18T12:01:40.864Z,18.33
2018-03-18T12:04:09.212Z,21.93
2018-03-18T12:06:37.513Z,18.27
2018-03-18T12:09:05.798Z,20.37
2018-03-18T12:11:34.084Z,20.00
2018-03-18T12:14:02.425Z,19.63
2018-03-18T12:16:31.504Z,20.87
2018-03-18T12:18:59.783Z,20.53
2018-03-18T12:21:28.179Z,19.37
2018-03-18T12:23:56.452Z,20.60
2018-03-18T12:26:24.708Z,19.33
2018-03-18T12:28:52.972Z,19.70
2018-03-18T12:31:21.237Z,20.83
2018-03-18T12:33:49.572Z,21.33
2018-03-18T12:36:17.792Z,22.23
2018-03-18T12:38:46.192Z,25.03
2018-03-18T12:41:14.447Z,19.30
2018-03-18T12:43:42.714Z,20.60
2018-03-18T12:46:10.997Z,18.00
2018-03-18T12:48:39.255Z,20.83
2018-03-18T12:51:07.527Z,19.90
2018-03-18T12:53:35.792Z,21.37
2018-03-18T12:56:04.075Z,22.43
2018-03-18T12:58:32.361Z,23.10
2018-03-18T13:01:00.628Z,19.27
2018-03-18T13:03:28.897Z,21.07
2018-03-18T13:05:57.201Z,21.57
2018-03-18T13:08:25.443Z,25.20
2018-03-18T13:10:53.739Z,20.53
2018-03-18T13:13:22.000Z,18.83
2018-03-18T13:15:50.281Z,21.83
2018-03-18T13:18:18.564Z,23.87
2018-03-18T13:20:46.856Z,22.80
2018-03-18T13:23:15.157Z,22.27
2018-03-18T13:25:43.486Z,20.57
2018-03-18T13:28:11.745Z,25.37
2018-03-18T13:30:40.796Z,20.80
2018-03-18T13:33:09.048Z,18.63
2018-03-18T13:35:37.327Z,18.63
2018-03-18T13:38:05.604Z,24.03
2018-03-18T13:40:33.868Z,21.97
2018-03-18T13:43:02.141Z,19.93
2018-03-18T13:45:30.407Z,23.13
2018-03-18T13:47:58.680Z,19.87
2018-03-18T13:50:26.991Z,22.63
2018-03-18T13:52:55.247Z,19.13
2018-03-18T13:55:23.528Z,20.40
2018-03-18T13:57:51.788Z,20.07
2018-03-18T14:00:20.850Z,19.47
2018-03-18T14:02:49.117Z,21.03
2018-03-18T14:05:17.416Z,21.33
2018-03-18T14:07:46.437Z,19.97
2018-03-18T14:10:14.726Z,20.97
2018-03-18T14:12:42.987Z,20.57
2018-03-18T14:15:11.260Z,21.97
2018-03-18T14:17:39.533Z,21.00
2018-03-18T14:20:07.827Z,21.00
2018-03-18T14:22:36.863Z,22.13
2018-03-18T14:25:05.135Z,23.07
2018-03-18T14:27:33.445Z,22.13
2018-03-18T14:30:01.800Z,19.70
2018-03-18T14:32:30.138Z,20.17
2018-03-18T14:34:59.221Z,21.27
2018-03-18T14:37:27.523Z,23.07
2018-03-18T14:39:55.787Z,20.40
2018-03-18T14:42:24.099Z,21.30
2018-03-18T14:44:52.355Z,20.97
2018-03-18T14:47:20.642Z,20.17
2018-03-18T14:49:48.905Z,21.13
2018-03-18T14:52:17.189Z,20.67
2018-03-18T14:54:45.448Z,20.27
2018-03-18T14:57:13.727Z,20.60
2018-03-18T14:59:41.998Z,19.27
2018-03-18T15:02:10.255Z,22.40
2018-03-18T15:04:38.878Z,21.90
2018-03-18T15:07:07.152Z,20.63
2018-03-18T15:09:35.424Z,22.00
2018-03-18T15:12:03.686Z,20.30
2018-03-18T15:14:31.966Z,19.07
2018-03-18T15:17:00.254Z,21.37
2018-03-18T15:19:28.585Z,22.73
2018-03-18T15:21:57.683Z,19.30
2018-03-18T15:24:26.705Z,21.67
2018-03-18T15:26:54.957Z,21.73
2018-03-18T15:29:23.232Z,25.63
2018-03-18T15:31:51.506Z,18.43
2018-03-18T15:34:19.791Z,19.17
2018-03-18T15:36:48.033Z,18.70
2018-03-18T15:39:17.134Z,21.87
2018-03-18T15:41:46.197Z,21.03
2018-03-18T15:44:14.466Z,19.93
2018-03-18T15:46:42.733Z,22.93
2018-03-18T15:49:11.032Z,21.63
2018-03-18T15:51:39.318Z,20.47
2018-03-18T15:54:07.643Z,22.97
2018-03-18T15:56:35.881Z,21.43
2018-03-18T15:59:05.002Z,24.57
2018-03-18T16:01:33.289Z,23.27
2018-03-18T16:04:01.529Z,21.17
2018-03-18T16:06:30.574Z,20.97
2018-03-18T16:08:58.838Z,21.03
2018-03-18T16:11:27.093Z,23.30
2018-03-18T16:13:55.408Z,21.33
2018-03-18T16:16:23.672Z,22.10
2018-03-18T16:18:51.937Z,19.17
2018-03-18T16:21:20.207Z,20.00
2018-03-18T16:23:48.515Z,19.47
2018-03-18T16:26:16.824Z,24.37
2018-03-18T16:28:45.119Z,20.83
2018-03-18T16:31:17.793Z,22.13
2018-03-18T16:33:46.044Z,21.27
2018-03-18T16:36:14.323Z,21.57
2018-03-18T16:38:42.610Z,21.97
2018-03-18T16:41:10.861Z,20.33
2018-03-18T16:43:39.134Z,24.30
2018-03-18T16:46:07.420Z,23.23
2018-03-18T16:48:35.680Z,20.37
2018-03-18T16:51:03.975Z,20.73
2018-03-18T16:53:32.240Z,21.47
2018-03-18T16:56:00.541Z,22.67
2018-03-18T16:58:28.968Z,21.00
2018-03-18T17:00:57.237Z,21.00
2018-03-18T17:03:25.623Z,23.63
2018-03-18T17:05:53.959Z,23.53
2018-03-18T17:08:22.396Z,20.20
2018-03-18T17:10:50.697Z,21.30
2018-03-18T17:13:19.002Z,25.03
2018-03-18T17:15:48.069Z,20.63
2018-03-18T17:18:16.423Z,26.87
2018-03-18T17:20:44.726Z,23.97
2018-03-18T17:23:12.998Z,24.23
2018-03-18T17:25:41.258Z,20.03
2018-03-18T17:28:09.520Z,23.37
2018-03-18T17:30:37.798Z,22.77
2018-03-18T17:33:06.097Z,21.23
2018-03-18T17:35:34.491Z,20.83
2018-03-18T17:38:02.757Z,21.33
2018-03-18T17:40:31.033Z,22.83
2018-03-18T17:43:03.279Z,22.63
2018-03-18T17:45:43.577Z,20.93
2018-03-18T17:48:23.717Z,20.33
2018-03-18T17:51:04.649Z,21.63
2018-03-18T17:53:44.706Z,22.27
2018-03-18T17:56:27.154Z,24.43
2018-03-18T17:58:55.616Z,23.17
2018-03-18T18:01:24.087Z,20.43
2018-03-18T18:03:53.220Z,20.97
2018-03-18T18:06:21.505Z,19.90
2018-03-18T18:08:49.826Z,22.77
2018-03-18T18:11:18.140Z,20.50
2018-03-18T18:13:46.620Z,19.77
2018-03-18T18:16:14.917Z,20.17
2018-03-18T18:18:43.246Z,21.80
2018-03-18T18:21:11.515Z,22.70
2018-03-18T18:23:39.863Z,20.83
2018-03-18T18:26:08.891Z,22.83
2018-03-18T18:28:37.180Z,24.17
2018-03-18T18:31:05.447Z,24.83
2018-03-18T18:33:33.714Z,20.47
2018-03-18T18:36:01.997Z,18.20
2018-03-18T18:38:30.285Z,23.63
2018-03-18T18:40:58.540Z,19.63
2018-03-18T18:43:26.847Z,18.73
2018-03-18T18:45:55.079Z,22.17
2018-03-18T18:48:23.372Z,19.23
2018-03-18T18:50:51.694Z,19.13
2018-03-18T18:53:19.988Z,18.93
2018-03-18T18:55:48.286Z,19.53
2018-03-18T18:58:16.653Z,20.43
2018-03-18T19:00:44.955Z,21.10
2018-03-18T19:03:13.379Z,18.40
2018-03-18T19:05:41.649Z,18.90
2018-03-18T19:08:09.929Z,18.97
2018-03-18T19:10:38.278Z,20.30
2018-03-18T19:13:06.561Z,18.93
2018-03-18T19:15:34.844Z,21.00
2018-03-18T19:18:03.100Z,20.60
2018-03-18T19:20:31.424Z,19.27
2018-03-18T19:22:59.719Z,21.97
2018-03-18T19:25:28.741Z,21.70
2018-03-18T19:27:57.048Z,20.13
2018-03-18T19:30:25.345Z,20.90
2018-03-18T19:32:53.625Z,18.23
2018-03-18T19:35:21.905Z,20.23
2018-03-18T19:37:50.179Z,21.97
2018-03-18T19:40:18.444Z,21.87
2018-03-18T19:42:47.486Z,22.07
2018-03-18T19:45:15.757Z,20.73
2018-03-18T19:47:44.836Z,23.80
2018-03-18T19:50:13.902Z,23.30
2018-03-18T19:52:42.231Z,20.80
2018-03-18T19:55:10.616Z,21.93
2018-03-18T19:57:38.881Z,24.27
2018-03-18T20:00:07.145Z,24.03
2018-03-18T20:02:36.204Z,23.07
2018-03-18T20:05:04.502Z,20.53
2018-03-18T20:07:36.835Z,26.73
2018-03-18T20:10:05.119Z,21.77
2018-03-18T20:12:33.388Z,23.83
2018-03-18T20:15:01.793Z,24.97
2018-03-18T20:17:30.150Z,21.40
2018-03-18T20:19:58.562Z,22.50
2018-03-18T20:22:26.831Z,25.40
2018-03-18T20:24:55.159Z,21.63
2018-03-18T20:27:23.582Z,22.17
2018-03-18T20:29:51.862Z,31.10
2018-03-18T20:32:20.261Z,21.10
2018-03-18T20:34:48.573Z,22.13
2018-03-18T20:37:16.889Z,22.53
2018-03-18T20:39:45.966Z,23.60
2018-03-18T20:42:14.268Z,22.73
2018-03-18T20:44:42.542Z,23.80
2018-03-18T20:47:10.825Z,22.57
2018-03-18T20:49:39.152Z,26.30
2018-03-18T20:52:07.478Z,25.43
2018-03-18T20:54:35.738Z,24.97
2018-03-18T20:57:04.012Z,23.20
2018-03-18T20:59:33.242Z,21.10
2018-03-18T21:02:02.322Z,21.70
2018-03-18T21:04:30.600Z,22.43
2018-03-18T21:06:58.884Z,22.63
2018-03-18T21:09:28.092Z,25.10
2018-03-18T21:11:57.221Z,24.47
2018-03-18T21:14:25.480Z,22.97
2018-03-18T21:16:53.776Z,27.90
2018-03-18T21:19:22.117Z,24.67
2018-03-18T21:21:51.408Z,22.70
2018-03-18T21:24:19.770Z,24.97
2018-03-18T21:26:48.054Z,25.47
2018-03-18T21:29:16.364Z,25.43
2018-03-18T21:31:44.651Z,23.67
2018-03-18T21:34:13.061Z,25.77
2018-03-18T21:36:41.342Z,23.20
2018-03-18T21:39:09.652Z,22.90
2018-03-18T21:41:37.928Z,25.65
2018-03-18T21:44:06.236Z,23.60
2018-03-18T21:46:34.491Z,24.05
2018-03-18T21:49:02.755Z,23.33
2018-03-18T21:51:31.929Z,26.10
2018-03-18T21:54:00.362Z,23.37
2018-03-18T21:56:28.669Z,25.77
2018-03-18T21:58:57.762Z,26.37
2018-03-18T22:01:28.137Z,25.27
2018-03-18T22:03:56.420Z,21.73
2018-03-18T22:06:27.240Z,27.23
2018-03-18T22:08:56.662Z,22.73
2018-03-18T22:11:24.959Z,27.20
2018-03-18T22:13:54.318Z,24.33
2018-03-18T22:16:23.571Z,26.67
2018-03-18T22:18:53.314Z,22.37
2018-03-18T22:21:21.584Z,25.47
2018-03-18T22:23:51.817Z,24.70
2018-03-18T22:26:20.064Z,22.67
2018-03-18T22:28:48.374Z,26.93
2018-03-18T22:31:16.625Z,27.90
2018-03-18T22:33:44.902Z,22.13
2018-03-18T22:36:13.191Z,26.37
2018-03-18T22:38:42.495Z,23.67
2018-03-18T22:41:10.832Z,21.83
2018-03-18T22:43:39.930Z,22.70
2018-03-18T22:46:08.189Z,27.57
2018-03-18T22:48:36.508Z,23.77
2018-03-18T22:51:04.834Z,18.20
2018-03-18T22:53:33.968Z,23.23
2018-03-18T22:56:02.282Z,24.33
2018-03-18T22:58:30.563Z,21.80
2018-03-18T23:00:58.893Z,29.63
2018-03-18T23:03:27.280Z,24.00
2018-03-18T23:05:56.692Z,25.70
2018-03-18T23:08:25.060Z,24.53
2018-03-18T23:10:53.758Z,22.10
2018-03-18T23:13:22.066Z,21.90
2018-03-18T23:15:50.350Z,24.33
2018-03-18T23:18:19.413Z,24.60
2018-03-18T23:20:47.659Z,27.40
2018-03-18T23:23:15.973Z,21.50
2018-03-18T23:25:44.235Z,21.80
2018-03-18T23:28:12.556Z,21.13
2018-03-18T23:30:43.436Z,24.67
2018-03-18T23:33:13.590Z,23.20
2018-03-18T23:35:41.860Z,26.00
2018-03-18T23:38:10.134Z,23.50
2018-03-18T23:40:38.401Z,24.73
2018-03-18T23:43:08.522Z,24.17
2018-03-18T23:45:36.799Z,21.63
2018-03-18T23:48:07.017Z,24.93
2018-03-18T23:50:53.880Z,25.77
2018-03-18T23:53:22.922Z,23.30
2018-03-18T23:55:56.401Z,23.17
2018-03-18T23:58:25.590Z,26.53
